sensor_id;sensor_type;location;lat;lon;timestamp;pressure;altitude;pressure_sealevel;temperature;humidity
5883;BME280;2967;51.488;6.618;2023-03-03T00:00:23;102036.22;;;4.42;100.00
5883;BME280;2967;51.488;6.618;2023-03-03T00:05:25;102053.72;;;4.41;100.00
5883;BME280;2967;51.488;6.618;2023-03-03T00:10:28;102060.13;;;4.27;100.00
5883;BME280;2967;51.488;6.618;2023-03-03T00:15:35;102001.56;;;3.84;100.00
5883;BME280;2967;51.488;6.618;2023-03-03T00:20:45;102009.38;;;3.87;100.00
5883;BME280;2967;51.488;6.618;2023-03-03T00:25:52;102031.59;;;4.12;100.00
5883;BME280;2967;51.488;6.618;2023-03-03T00:30:57;102060.97;;;4.26;100.00
5883;BME280;2967;51.488;6.618;2023-03-03T00:36:23;102079.19;;;4.33;100.00
5883;BME280;2967;51.488;6.618;2023-03-03T00:41:30;101963.53;;;3.65;100.00
5883;BME280;2967;51.488;6.618;2023-03-03T00:46:35;102075.94;;;4.21;100.00
5883;BME280;2967;51.488;6.618;2023-03-03T00:51:42;102041.22;;;4.10;100.00
5883;BME280;2967;51.488;6.618;2023-03-03T00:56:45;102010.25;;;3.86;100.00
5883;BME280;2967;51.488;6.618;2023-03-03T01:01:50;102093.69;;;4.49;100.00
5883;BME280;2967;51.488;6.618;2023-03-03T01:06:53;102049.91;;;4.13;100.00
5883;BME280;2967;51.488;6.618;2023-03-03T01:11:56;101995.88;;;3.61;100.00
5883;BME280;2967;51.488;6.618;2023-03-03T01:17:00;102091.47;;;4.31;100.00
5883;BME280;2967;51.488;6.618;2023-03-03T01:22:03;102088.84;;;4.31;100.00
5883;BME280;2967;51.488;6.618;2023-03-03T01:27:06;102094.19;;;4.24;100.00
5883;BME280;2967;51.488;6.618;2023-03-03T01:32:11;102079.44;;;4.20;100.00
5883;BME280;2967;51.488;6.618;2023-03-03T01:37:14;102092.44;;;4.24;100.00
5883;BME280;2967;51.488;6.618;2023-03-03T01:42:19;102090.69;;;4.25;100.00
5883;BME280;2967;51.488;6.618;2023-03-03T01:47:27;102030.34;;;3.84;100.00
5883;BME280;2967;51.488;6.618;2023-03-03T01:52:33;102096.91;;;4.19;100.00
5883;BME280;2967;51.488;6.618;2023-03-03T01:57:40;102090.75;;;4.22;100.00
5883;BME280;2967;51.488;6.618;2023-03-03T02:02:47;102083.63;;;4.30;100.00
5883;BME280;2967;51.488;6.618;2023-03-03T02:07:50;102051.75;;;4.07;100.00
5883;BME280;2967;51.488;6.618;2023-03-03T02:12:55;102083.63;;;4.30;100.00
5883;BME280;2967;51.488;6.618;2023-03-03T02:18:03;102018.00;;;3.92;100.00
5883;BME280;2967;51.488;6.618;2023-03-03T02:23:12;101870.75;;;2.88;100.00
5883;BME280;2967;51.488;6.618;2023-03-03T02:28:24;101755.38;;;2.10;100.00
5883;BME280;2967;51.488;6.618;2023-03-03T02:33:28;102028.63;;;3.83;100.00
5883;BME280;2967;51.488;6.618;2023-03-03T02:38:35;102090.97;;;4.11;100.00
5883;BME280;2967;51.488;6.618;2023-03-03T02:43:45;102000.28;;;3.59;100.00
5883;BME280;2967;51.488;6.618;2023-03-03T02:48:51;102035.72;;;3.78;100.00
5883;BME280;2967;51.488;6.618;2023-03-03T02:53:54;102088.41;;;4.07;100.00
5883;BME280;2967;51.488;6.618;2023-03-03T02:59:03;101998.56;;;3.56;100.00
5883;BME280;2967;51.488;6.618;2023-03-03T03:04:13;102006.50;;;3.52;100.00
5883;BME280;2967;51.488;6.618;2023-03-03T03:09:20;102100.91;;;3.91;100.00
5883;BME280;2967;51.488;6.618;2023-03-03T03:14:26;102096.00;;;3.70;100.00
5883;BME280;2967;51.488;6.618;2023-03-03T03:19:30;102104.34;;;3.93;100.00
5883;BME280;2967;51.488;6.618;2023-03-03T03:24:36;102106.25;;;3.84;100.00
5883;BME280;2967;51.488;6.618;2023-03-03T03:29:43;101884.41;;;2.49;100.00
5883;BME280;2967;51.488;6.618;2023-03-03T03:34:47;102108.22;;;3.70;100.00
5883;BME280;2967;51.488;6.618;2023-03-03T03:39:50;102111.88;;;3.61;100.00
5883;BME280;2967;51.488;6.618;2023-03-03T03:44:55;101857.22;;;2.05;100.00
5883;BME280;2967;51.488;6.618;2023-03-03T03:49:58;102103.88;;;3.69;100.00
5883;BME280;2967;51.488;6.618;2023-03-03T03:55:03;102123.75;;;3.80;100.00
5883;BME280;2967;51.488;6.618;2023-03-03T04:00:10;102072.00;;;3.46;100.00
5883;BME280;2967;51.488;6.618;2023-03-03T04:05:25;102125.66;;;3.69;100.00
5883;BME280;2967;51.488;6.618;2023-03-03T04:10:29;101642.50;;;0.78;100.00
5883;BME280;2967;51.488;6.618;2023-03-03T04:15:33;102131.84;;;3.67;100.00
5883;BME280;2967;51.488;6.618;2023-03-03T04:20:38;102084.97;;;3.53;100.00
5883;BME280;2967;51.488;6.618;2023-03-03T04:25:41;102123.88;;;3.74;100.00
5883;BME280;2967;51.488;6.618;2023-03-03T04:30:49;102039.19;;;3.24;100.00
5883;BME280;2967;51.488;6.618;2023-03-03T04:35:54;101889.94;;;2.30;100.00
5883;BME280;2967;51.488;6.618;2023-03-03T04:40:57;101807.13;;;1.81;100.00
5883;BME280;2967;51.488;6.618;2023-03-03T04:46:05;102122.16;;;3.70;100.00
5883;BME280;2967;51.488;6.618;2023-03-03T04:51:09;102131.84;;;3.67;100.00
5883;BME280;2967;51.488;6.618;2023-03-03T04:56:12;102051.53;;;3.16;100.00
5883;BME280;2967;51.488;6.618;2023-03-03T05:01:17;102136.25;;;3.62;100.00
5883;BME280;2967;51.488;6.618;2023-03-03T05:06:20;101950.28;;;2.71;100.00
5883;BME280;2967;51.488;6.618;2023-03-03T05:11:23;102038.56;;;3.10;100.00
5883;BME280;2967;51.488;6.618;2023-03-03T05:16:27;101726.22;;;1.19;100.00
5883;BME280;2967;51.488;6.618;2023-03-03T05:21:30;102119.88;;;3.51;100.00
5883;BME280;2967;51.488;6.618;2023-03-03T05:26:33;102145.84;;;3.63;100.00
5883;BME280;2967;51.488;6.618;2023-03-03T05:31:37;102149.25;;;3.68;100.00
5883;BME280;2967;51.488;6.618;2023-03-03T05:36:41;102121.66;;;3.49;100.00
5883;BME280;2967;51.488;6.618;2023-03-03T05:41:43;102104.47;;;3.31;100.00
5883;BME280;2967;51.488;6.618;2023-03-03T05:46:51;101942.81;;;2.47;100.00
5883;BME280;2967;51.488;6.618;2023-03-03T05:51:54;102042.19;;;2.98;100.00
5883;BME280;2967;51.488;6.618;2023-03-03T05:56:57;102051.75;;;2.99;100.00
5883;BME280;2967;51.488;6.618;2023-03-03T06:02:02;102148.44;;;3.64;100.00
5883;BME280;2967;51.488;6.618;2023-03-03T06:07:05;102151.97;;;3.60;100.00
5883;BME280;2967;51.488;6.618;2023-03-03T06:12:09;102142.31;;;3.64;100.00
5883;BME280;2967;51.488;6.618;2023-03-03T06:17:15;101884.13;;;2.12;100.00
5883;BME280;2967;51.488;6.618;2023-03-03T06:22:27;102164.91;;;3.72;100.00
5883;BME280;2967;51.488;6.618;2023-03-03T06:27:30;102089.81;;;3.18;100.00
5883;BME280;2967;51.488;6.618;2023-03-03T06:32:35;102163.63;;;3.40;100.00
5883;BME280;2967;51.488;6.618;2023-03-03T06:37:38;102117.63;;;3.27;100.00
5883;BME280;2967;51.488;6.618;2023-03-03T06:42:41;102189.34;;;3.68;100.00
5883;BME280;2967;51.488;6.618;2023-03-03T06:47:47;102197.97;;;3.78;100.00
5883;BME280;2967;51.488;6.618;2023-03-03T06:52:59;102173.78;;;3.61;100.00
5883;BME280;2967;51.488;6.618;2023-03-03T06:58:11;102211.88;;;3.80;100.00
5883;BME280;2967;51.488;6.618;2023-03-03T07:03:18;102122.91;;;3.22;100.00
5883;BME280;2967;51.488;6.618;2023-03-03T07:08:24;102198.97;;;3.68;100.00
5883;BME280;2967;51.488;6.618;2023-03-03T07:13:28;102201.53;;;3.71;100.00
5883;BME280;2967;51.488;6.618;2023-03-03T07:18:36;102204.84;;;3.82;100.00
5883;BME280;2967;51.488;6.618;2023-03-03T07:23:43;102183.22;;;3.71;100.00
5883;BME280;2967;51.488;6.618;2023-03-03T07:28:52;102185.91;;;3.68;100.00
5883;BME280;2967;51.488;6.618;2023-03-03T07:33:58;102179.81;;;3.66;100.00
5883;BME280;2967;51.488;6.618;2023-03-03T07:39:10;102229.81;;;4.05;100.00
5883;BME280;2967;51.488;6.618;2023-03-03T07:44:20;102227.28;;;3.99;100.00
5883;BME280;2967;51.488;6.618;2023-03-03T07:49:33;102247.19;;;4.09;100.00
5883;BME280;2967;51.488;6.618;2023-03-03T07:54:40;102246.28;;;4.12;100.00
5883;BME280;2967;51.488;6.618;2023-03-03T07:59:47;102221.31;;;3.90;100.00
5883;BME280;2967;51.488;6.618;2023-03-03T08:04:52;102071.94;;;2.90;100.00
5883;BME280;2967;51.488;6.618;2023-03-03T08:09:57;102172.06;;;3.58;100.00
5883;BME280;2967;51.488;6.618;2023-03-03T08:15:21;102271.50;;;4.19;100.00
5883;BME280;2967;51.488;6.618;2023-03-03T08:20:40;102098.59;;;3.16;100.00
5883;BME280;2967;51.488;6.618;2023-03-03T08:25:44;102274.91;;;4.24;100.00
5883;BME280;2967;51.488;6.618;2023-03-03T08:30:49;102279.94;;;4.36;100.00
5883;BME280;2967;51.488;6.618;2023-03-03T08:36:02;102218.50;;;4.02;100.00
5883;BME280;2967;51.488;6.618;2023-03-03T08:47:52;102299.00;;;4.47;100.00
5883;BME280;2967;51.488;6.618;2023-03-03T08:52:56;102297.16;;;4.50;100.00
5883;BME280;2967;51.488;6.618;2023-03-03T08:57:59;102295.44;;;4.51;100.00
5883;BME280;2967;51.488;6.618;2023-03-03T09:03:04;102301.41;;;4.59;100.00
5883;BME280;2967;51.488;6.618;2023-03-03T09:08:09;102209.63;;;4.12;100.00
5883;BME280;2967;51.488;6.618;2023-03-03T09:13:18;102227.88;;;4.16;100.00
5883;BME280;2967;51.488;6.618;2023-03-03T09:18:30;102253.09;;;4.23;100.00
5883;BME280;2967;51.488;6.618;2023-03-03T09:23:37;102326.59;;;4.67;100.00
5883;BME280;2967;51.488;6.618;2023-03-03T09:28:41;102327.56;;;4.62;100.00
5883;BME280;2967;51.488;6.618;2023-03-03T09:33:46;102302.59;;;4.38;100.00
5883;BME280;2967;51.488;6.618;2023-03-03T09:38:52;102327.47;;;4.68;100.00
5883;BME280;2967;51.488;6.618;2023-03-03T09:44:08;102266.00;;;4.34;100.00
5883;BME280;2967;51.488;6.618;2023-03-03T09:49:23;102259.13;;;4.28;100.00
5883;BME280;2967;51.488;6.618;2023-03-03T09:54:42;102315.44;;;4.56;100.00
5883;BME280;2967;51.488;6.618;2023-03-03T10:00:13;102283.38;;;4.41;100.00
5883;BME280;2967;51.488;6.618;2023-03-03T10:05:28;102312.66;;;4.64;100.00
5883;BME280;2967;51.488;6.618;2023-03-03T10:10:49;102349.06;;;4.82;100.00
5883;BME280;2967;51.488;6.618;2023-03-03T10:16:09;102345.38;;;4.93;100.00
5883;BME280;2967;51.488;6.618;2023-03-03T10:21:22;102318.34;;;4.90;100.00
5883;BME280;2967;51.488;6.618;2023-03-03T10:26:41;102297.59;;;4.78;100.00
5883;BME280;2967;51.488;6.618;2023-03-03T10:32:32;102232.41;;;4.58;100.00
5883;BME280;2967;51.488;6.618;2023-03-03T10:37:46;102365.34;;;5.48;100.00
5883;BME280;2967;51.488;6.618;2023-03-03T10:43:08;102291.22;;;4.92;100.00
5883;BME280;2967;51.488;6.618;2023-03-03T10:48:41;102230.47;;;4.69;100.00
5883;BME280;2967;51.488;6.618;2023-03-03T10:53:54;102347.97;;;5.43;100.00
5883;BME280;2967;51.488;6.618;2023-03-03T10:59:12;102341.09;;;5.37;100.00
5883;BME280;2967;51.488;6.618;2023-03-03T11:09:58;102358.06;;;5.64;100.00
5883;BME280;2967;51.488;6.618;2023-03-03T11:15:18;102249.06;;;5.03;100.00
5883;BME280;2967;51.488;6.618;2023-03-03T11:20:31;102159.59;;;4.75;100.00
5883;BME280;2967;51.488;6.618;2023-03-03T11:25:43;102320.25;;;5.72;100.00
5883;BME280;2967;51.488;6.618;2023-03-03T11:36:17;102121.81;;;4.87;100.00
5883;BME280;2967;51.488;6.618;2023-03-03T11:41:35;102291.25;;;5.77;100.00
5883;BME280;2967;51.488;6.618;2023-03-03T11:46:42;102297.09;;;5.92;100.00
5883;BME280;2967;51.488;6.618;2023-03-03T11:51:55;102342.97;;;6.16;100.00
5883;BME280;2967;51.488;6.618;2023-03-03T11:57:15;102233.47;;;5.80;100.00
5883;BME280;2967;51.488;6.618;2023-03-03T12:02:33;102106.63;;;5.02;100.00
5883;BME280;2967;51.488;6.618;2023-03-03T12:07:51;102324.84;;;6.42;100.00
5883;BME280;2967;51.488;6.618;2023-03-03T12:13:13;101976.25;;;4.30;100.00
5883;BME280;2967;51.488;6.618;2023-03-03T12:18:38;102251.72;;;6.24;100.00
5883;BME280;2967;51.488;6.618;2023-03-03T12:24:05;102046.56;;;5.28;100.00
5883;BME280;2967;51.488;6.618;2023-03-03T12:29:24;102294.81;;;7.19;100.00
5883;BME280;2967;51.488;6.618;2023-03-03T12:34:35;102288.44;;;7.58;99.05
5883;BME280;2967;51.488;6.618;2023-03-03T12:39:58;102294.03;;;8.05;96.48
5883;BME280;2967;51.488;6.618;2023-03-03T12:45:21;102090.97;;;7.01;93.04
5883;BME280;2967;51.488;6.618;2023-03-03T12:50:35;102295.03;;;8.01;93.45
5883;BME280;2967;51.488;6.618;2023-03-03T12:55:52;102033.84;;;6.16;95.24
5883;BME280;2967;51.488;6.618;2023-03-03T13:01:11;102292.56;;;7.66;96.83
5883;BME280;2967;51.488;6.618;2023-03-03T13:06:22;102222.06;;;7.16;96.65
5883;BME280;2967;51.488;6.618;2023-03-03T13:11:44;102184.19;;;6.91;97.46
5883;BME280;2967;51.488;6.618;2023-03-03T13:17:16;102295.03;;;8.01;97.53
5883;BME280;2967;51.488;6.618;2023-03-03T13:22:36;102202.91;;;7.98;93.39
5883;BME280;2967;51.488;6.618;2023-03-03T13:27:44;102250.31;;;8.79;94.69
5883;BME280;2967;51.488;6.618;2023-03-03T13:32:56;102236.09;;;9.07;91.11
5883;BME280;2967;51.488;6.618;2023-03-03T13:38:11;102270.81;;;9.90;90.61
5883;BME280;2967;51.488;6.618;2023-03-03T13:43:23;102272.66;;;10.33;89.05
5883;BME280;2967;51.488;6.618;2023-03-03T13:48:38;102162.88;;;9.80;86.88
5883;BME280;2967;51.488;6.618;2023-03-03T13:53:48;102057.75;;;9.23;86.97
5883;BME280;2967;51.488;6.618;2023-03-03T13:59:01;102055.19;;;9.20;84.68
5883;BME280;2967;51.488;6.618;2023-03-03T14:04:12;102057.69;;;9.02;83.23
5883;BME280;2967;51.488;6.618;2023-03-03T14:09:34;102139.16;;;9.78;87.93
5883;BME280;2967;51.488;6.618;2023-03-03T14:14:47;102046.94;;;9.08;85.00
5883;BME280;2967;51.488;6.618;2023-03-03T14:20:01;102235.50;;;10.36;86.42
5883;BME280;2967;51.488;6.618;2023-03-03T14:25:07;102124.34;;;9.74;83.61
5883;BME280;2967;51.488;6.618;2023-03-03T14:30:33;102234.66;;;10.35;86.82
5883;BME280;2967;51.488;6.618;2023-03-03T14:35:41;102157.41;;;9.84;84.04
5883;BME280;2967;51.488;6.618;2023-03-03T14:40:46;102227.84;;;10.30;86.50
5883;BME280;2967;51.488;6.618;2023-03-03T14:45:52;101950.13;;;8.87;85.57
5883;BME280;2967;51.488;6.618;2023-03-03T14:50:59;102129.03;;;9.68;86.49
5883;BME280;2967;51.488;6.618;2023-03-03T14:56:29;101949.44;;;8.82;86.23
5883;BME280;2967;51.488;6.618;2023-03-03T15:07:32;101972.50;;;8.98;87.13
5883;BME280;2967;51.488;6.618;2023-03-03T15:12:44;101786.56;;;7.99;90.58
5883;BME280;2967;51.488;6.618;2023-03-03T15:18:00;102196.72;;;10.15;86.75
5883;BME280;2967;51.488;6.618;2023-03-03T15:23:37;102113.41;;;9.17;88.02
5883;BME280;2967;51.488;6.618;2023-03-03T15:28:54;102093.41;;;8.89;88.21
5883;BME280;2967;51.488;6.618;2023-03-03T15:34:24;102076.09;;;8.57;89.51
5883;BME280;2967;51.488;6.618;2023-03-03T15:39:48;101853.28;;;6.76;91.49
5883;BME280;2967;51.488;6.618;2023-03-03T15:45:03;102089.47;;;8.02;92.17
5883;BME280;2967;51.488;6.618;2023-03-03T15:50:37;101941.00;;;7.03;92.59
5883;BME280;2967;51.488;6.618;2023-03-03T15:56:19;101907.69;;;7.02;93.64
5883;BME280;2967;51.488;6.618;2023-03-03T16:01:54;102189.59;;;8.30;95.64
5883;BME280;2967;51.488;6.618;2023-03-03T16:07:16;101868.28;;;6.47;95.60
5883;BME280;2967;51.488;6.618;2023-03-03T16:12:29;102063.63;;;7.34;97.42
5883;BME280;2967;51.488;6.618;2023-03-03T16:17:47;101627.22;;;4.87;96.49
5883;BME280;2967;51.488;6.618;2023-03-03T16:23:33;102023.25;;;7.08;97.45
5883;BME280;2967;51.488;6.618;2023-03-03T16:28:53;101955.16;;;6.70;97.24
5883;BME280;2967;51.488;6.618;2023-03-03T16:34:14;101766.97;;;5.51;97.51
5883;BME280;2967;51.488;6.618;2023-03-03T16:39:31;102138.16;;;7.64;98.68
5883;BME280;2967;51.488;6.618;2023-03-03T16:44:45;102054.84;;;7.06;99.37
5883;BME280;2967;51.488;6.618;2023-03-03T16:50:05;102092.81;;;7.27;100.00
5883;BME280;2967;51.488;6.618;2023-03-03T16:55:15;102182.78;;;7.68;100.00
5883;BME280;2967;51.488;6.618;2023-03-03T17:00:26;102075.63;;;6.86;100.00
5883;BME280;2967;51.488;6.618;2023-03-03T17:05:40;102101.94;;;7.15;100.00
5883;BME280;2967;51.488;6.618;2023-03-03T17:10:51;102194.66;;;7.54;100.00
5883;BME280;2967;51.488;6.618;2023-03-03T17:16:08;102196.63;;;7.47;100.00
5883;BME280;2967;51.488;6.618;2023-03-03T17:21:24;102158.06;;;7.16;100.00
5883;BME280;2967;51.488;6.618;2023-03-03T17:26:44;102114.22;;;6.86;100.00
5883;BME280;2967;51.488;6.618;2023-03-03T17:32:14;102213.38;;;7.43;100.00
5883;BME280;2967;51.488;6.618;2023-03-03T17:37:29;102204.50;;;7.18;100.00
5883;BME280;2967;51.488;6.618;2023-03-03T17:42:42;102213.88;;;7.27;100.00
5883;BME280;2967;51.488;6.618;2023-03-03T17:48:31;102221.91;;;7.22;100.00
5883;BME280;2967;51.488;6.618;2023-03-03T17:53:55;102201.19;;;7.10;100.00
5883;BME280;2967;51.488;6.618;2023-03-03T17:59:23;102175.56;;;6.86;100.00
5883;BME280;2967;51.488;6.618;2023-03-03T18:04:59;102177.03;;;6.96;100.00
5883;BME280;2967;51.488;6.618;2023-03-03T18:10:31;102248.00;;;7.30;100.00
5883;BME280;2967;51.488;6.618;2023-03-03T18:16:14;102183.03;;;7.01;100.00
5883;BME280;2967;51.488;6.618;2023-03-03T18:21:26;102013.66;;;5.86;100.00
5883;BME280;2967;51.488;6.618;2023-03-03T18:26:37;102073.09;;;6.21;100.00
5883;BME280;2967;51.488;6.618;2023-03-03T18:31:48;102202.03;;;7.12;100.00
5883;BME280;2967;51.488;6.618;2023-03-03T18:36:55;102110.97;;;6.46;100.00
5883;BME280;2967;51.488;6.618;2023-03-03T18:48:07;102248.31;;;7.19;100.00
5883;BME280;2967;51.488;6.618;2023-03-03T18:53:18;102087.13;;;6.21;100.00
5883;BME280;2967;51.488;6.618;2023-03-03T18:58:40;101909.44;;;5.23;100.00
5883;BME280;2967;51.488;6.618;2023-03-03T19:04:08;102259.66;;;7.21;100.00
5883;BME280;2967;51.488;6.618;2023-03-03T19:09:20;102094.53;;;6.06;100.00
5883;BME280;2967;51.488;6.618;2023-03-03T19:14:46;102047.63;;;5.91;100.00
5883;BME280;2967;51.488;6.618;2023-03-03T19:20:13;102150.03;;;6.59;100.00
5883;BME280;2967;51.488;6.618;2023-03-03T19:25:28;102278.59;;;7.34;100.00
5883;BME280;2967;51.488;6.618;2023-03-03T19:30:57;102149.78;;;6.68;100.00
5883;BME280;2967;51.488;6.618;2023-03-03T19:36:46;102257.44;;;7.38;100.00
5883;BME280;2967;51.488;6.618;2023-03-03T19:42:33;102135.06;;;6.63;100.00
5883;BME280;2967;51.488;6.618;2023-03-03T19:48:06;102222.25;;;7.10;100.00
5883;BME280;2967;51.488;6.618;2023-03-03T19:53:33;101952.66;;;5.42;100.00
5883;BME280;2967;51.488;6.618;2023-03-03T19:59:02;102254.13;;;7.30;100.00
5883;BME280;2967;51.488;6.618;2023-03-03T20:04:26;102057.53;;;6.15;100.00
5883;BME280;2967;51.488;6.618;2023-03-03T20:09:43;102012.56;;;5.93;100.00
5883;BME280;2967;51.488;6.618;2023-03-03T20:15:05;102030.13;;;5.91;98.28
5883;BME280;2967;51.488;6.618;2023-03-03T20:20:28;101936.13;;;5.38;98.32
5883;BME280;2967;51.488;6.618;2023-03-03T20:25:36;102270.84;;;7.29;97.57
5883;BME280;2967;51.488;6.618;2023-03-03T20:30:58;102276.47;;;7.16;97.69
5883;BME280;2967;51.488;6.618;2023-03-03T20:36:13;102283.00;;;7.33;96.79
5883;BME280;2967;51.488;6.618;2023-03-03T20:41:27;102227.31;;;6.86;97.56
5883;BME280;2967;51.488;6.618;2023-03-03T20:46:52;102311.25;;;7.27;98.78
5883;BME280;2967;51.488;6.618;2023-03-03T20:52:07;102000.72;;;5.42;99.04
5883;BME280;2967;51.488;6.618;2023-03-03T20:57:18;102162.63;;;6.47;99.44
5883;BME280;2967;51.488;6.618;2023-03-03T21:02:31;102045.50;;;5.71;99.45
5883;BME280;2967;51.488;6.618;2023-03-03T21:07:51;102235.56;;;6.72;99.72
5883;BME280;2967;51.488;6.618;2023-03-03T21:13:25;102141.50;;;6.18;99.82
5883;BME280;2967;51.488;6.618;2023-03-03T21:18:37;102157.69;;;6.35;98.82
5883;BME280;2967;51.488;6.618;2023-03-03T21:23:40;102201.06;;;6.51;97.02
5883;BME280;2967;51.488;6.618;2023-03-03T21:28:58;101981.97;;;5.24;97.67
5883;BME280;2967;51.488;6.618;2023-03-03T21:34:16;102297.78;;;7.05;97.50
5883;BME280;2967;51.488;6.618;2023-03-03T21:39:27;102088.84;;;5.89;95.50
5883;BME280;2967;51.488;6.618;2023-03-03T21:44:33;102287.50;;;6.96;96.58
5883;BME280;2967;51.488;6.618;2023-03-03T21:49:41;102303.78;;;7.12;96.10
5883;BME280;2967;51.488;6.618;2023-03-03T21:54:46;102195.88;;;6.49;95.68
5883;BME280;2967;51.488;6.618;2023-03-03T21:59:49;102293.88;;;7.21;95.63
5883;BME280;2967;51.488;6.618;2023-03-03T22:04:58;101941.94;;;4.80;96.47
5883;BME280;2967;51.488;6.618;2023-03-03T22:10:03;102033.91;;;5.45;96.60
5883;BME280;2967;51.488;6.618;2023-03-03T22:15:08;102206.31;;;6.51;96.56
5883;BME280;2967;51.488;6.618;2023-03-03T22:20:13;102291.84;;;6.99;98.05
5883;BME280;2967;51.488;6.618;2023-03-03T22:25:17;102243.44;;;6.74;97.76
5883;BME280;2967;51.488;6.618;2023-03-03T22:30:25;102197.59;;;6.50;96.99
5883;BME280;2967;51.488;6.618;2023-03-03T22:35:29;102203.00;;;6.44;97.81
5883;BME280;2967;51.488;6.618;2023-03-03T22:40:33;102285.53;;;7.06;97.00
5883;BME280;2967;51.488;6.618;2023-03-03T22:45:36;102293.25;;;7.12;97.52
5883;BME280;2967;51.488;6.618;2023-03-03T22:50:43;102208.56;;;6.66;97.36
5883;BME280;2967;51.488;6.618;2023-03-03T22:55:56;102081.84;;;5.89;98.07
5883;BME280;2967;51.488;6.618;2023-03-03T23:00:59;102275.84;;;7.06;98.44
5883;BME280;2967;51.488;6.618;2023-03-03T23:06:05;102288.81;;;7.14;98.69
5883;BME280;2967;51.488;6.618;2023-03-03T23:11:15;102040.06;;;5.44;99.15
5883;BME280;2967;51.488;6.618;2023-03-03T23:16:18;102288.72;;;6.85;100.00
5883;BME280;2967;51.488;6.618;2023-03-03T23:21:23;102280.63;;;6.92;100.00
5883;BME280;2967;51.488;6.618;2023-03-03T23:26:30;102298.03;;;6.96;100.00
5883;BME280;2967;51.488;6.618;2023-03-03T23:31:33;102214.06;;;6.57;100.00
5883;BME280;2967;51.488;6.618;2023-03-03T23:36:38;102238.03;;;6.78;99.02
5883;BME280;2967;51.488;6.618;2023-03-03T23:41:41;102214.88;;;6.59;100.00
5883;BME280;2967;51.488;6.618;2023-03-03T23:46:45;102255.34;;;6.87;100.00
5883;BME280;2967;51.488;6.618;2023-03-03T23:51:49;102285.56;;;7.04;99.76
5883;BME280;2967;51.488;6.618;2023-03-03T23:56:55;102279.50;;;7.01;100.00
